Time;durP1;ratioP1;P1;durP2;ratioP2;P2;SDS_P1;SDS_P2;PMS_P1;PMS_P2;Temp;Humidity;BMP_temperature;BMP_pressure;BME280_temperature;BME280_humidity;BME280_pressure;Samples;Min_cycle;Max_cycle;Signal;HPM_P1;HPM_P2
2022/06/01 00:01:01;;;;;;;4.78;0.47;;;12.30;87.40;;;;;;5013083;28;20067;-67
2022/06/01 00:03:38;;;;;;;2.92;0.32;;;12.20;86.50;;;;;;5012597;28;20022;-67
2022/06/01 00:06:05;;;;;;;1.38;0.55;;;12.30;88.20;;;;;;5013110;28;20389;-67
2022/06/01 00:08:33;;;;;;;6.50;0.63;;;12.40;88.80;;;;;;5013092;28;20109;-68
2022/06/01 00:11:00;;;;;;;11.77;1.15;;;12.60;87.90;;;;;;5013217;28;20022;-67
2022/06/01 00:13:27;;;;;;;7.30;0.90;;;12.60;86.40;;;;;;5014429;28;20030;-69
2022/06/01 00:15:54;;;;;;;3.40;1.48;;;12.60;86.50;;;;;;5013073;28;20045;-68
2022/06/01 00:18:22;;;;;;;0.95;0.30;;;12.50;86.40;;;;;;5014307;28;20085;-69
2022/06/01 00:20:50;;;;;;;4.90;0.52;;;12.50;85.70;;;;;;5011790;28;20029;-70
2022/06/01 00:23:18;;;;;;;4.45;0.65;;;12.50;86.20;;;;;;5013251;28;20025;-70
2022/06/01 00:25:46;;;;;;;0.88;0.25;;;12.70;87.60;;;;;;5008742;28;20050;-69
2022/06/01 00:28:13;;;;;;;1.50;0.50;;;12.90;87.00;;;;;;5008900;28;20018;-70
2022/06/01 00:30:40;;;;;;;3.33;0.57;;;13.00;87.50;;;;;;5011170;28;20538;-69
2022/06/01 00:33:08;;;;;;;3.80;0.50;;;13.20;86.90;;;;;;5008895;28;20577;-69
2022/06/01 00:35:35;;;;;;;1.40;0.43;;;13.20;84.20;;;;;;5011343;28;20022;-71
2022/06/01 00:38:02;;;;;;;5.00;0.90;;;13.00;85.40;;;;;;5012529;28;20021;-68
2022/06/01 00:40:30;;;;;;;1.00;0.35;;;13.20;86.00;;;;;;5009375;28;20026;-68
2022/06/01 00:42:59;;;;;;;3.15;0.60;;;13.30;85.20;;;;;;5012016;28;20057;-68
2022/06/01 00:45:30;;;;;;;0.20;0.20;;;13.40;84.90;;;;;;5007295;28;20037;-69
2022/06/01 00:47:57;;;;;;;1.98;0.55;;;13.40;84.40;;;;;;5011070;28;20029;-69
2022/06/01 00:50:30;;;;;;;3.03;0.73;;;13.60;83.10;;;;;;5011801;28;20072;-68
2022/06/01 00:53:03;;;;;;;0.30;0.15;;;13.60;83.90;;;;;;5011406;28;20014;-68
2022/06/01 00:55:35;;;;;;;2.25;0.60;;;13.80;84.20;;;;;;5009690;28;20030;-69
2022/06/01 00:58:11;;;;;;;0.90;0.30;;;13.90;83.70;;;;;;5012013;28;20022;-67
2022/06/01 01:00:40;;;;;;;0.50;0.22;;;14.00;80.70;;;;;;5010913;28;20152;-68
2022/06/01 01:03:10;;;;;;;1.50;0.47;;;14.00;82.00;;;;;;5011665;28;20037;-67
2022/06/01 01:05:41;;;;;;;4.25;0.57;;;14.00;79.80;;;;;;5011446;28;20034;-69
2022/06/01 01:08:09;;;;;;;0.60;0.20;;;13.90;80.20;;;;;;5011657;28;20014;-69
2022/06/01 01:10:36;;;;;;;0.25;0.20;;;13.90;81.20;;;;;;5011349;28;20391;-69
2022/06/01 01:13:08;;;;;;;3.00;0.32;;;14.10;81.10;;;;;;5011952;28;20040;-68
2022/06/01 01:15:35;;;;;;;0.43;0.30;;;14.30;81.00;;;;;;5011478;28;20030;-70
2022/06/01 01:18:06;;;;;;;1.60;0.30;;;14.20;77.50;;;;;;4993991;28;20521;-69
2022/06/01 01:20:35;;;;;;;4.15;0.70;;;14.20;76.90;;;;;;5009247;28;20053;-67
2022/06/01 01:23:25;;;;;;;1.35;0.25;;;14.00;77.30;;;;;;5011254;28;20030;-68
2022/06/01 01:25:52;;;;;;;2.50;0.30;;;13.90;76.60;;;;;;5011961;28;20030;-68
2022/06/01 01:28:19;;;;;;;0.40;0.32;;;13.70;75.90;;;;;;5011474;28;20025;-68
2022/06/01 01:31:06;;;;;;;1.02;0.32;;;13.90;77.20;;;;;;5011209;28;20050;-67
2022/06/01 01:33:34;;;;;;;0.55;0.20;;;14.00;77.00;;;;;;5008490;28;20034;-69
2022/06/01 01:36:05;;;;;;;0.20;0.20;;;14.00;75.40;;;;;;5011616;28;20022;-69
2022/06/01 01:38:37;;;;;;;3.42;0.40;;;14.00;76.10;;;;;;5011063;28;20029;-69
2022/06/01 01:41:07;;;;;;;2.28;0.38;;;14.10;75.70;;;;;;5010401;28;20026;-68
2022/06/01 01:43:55;;;;;;;2.63;0.47;;;14.20;73.80;;;;;;5007741;28;20038;-69
2022/06/01 01:46:22;;;;;;;0.22;0.10;;;13.90;74.30;;;;;;5009187;28;20063;-69
2022/06/01 01:48:49;;;;;;;0.30;0.20;;;14.00;75.40;;;;;;5007545;28;20021;-69
2022/06/01 01:51:21;;;;;;;0.20;0.20;;;14.10;75.60;;;;;;5010879;28;20025;-69
2022/06/01 01:53:49;;;;;;;2.63;0.30;;;14.10;77.00;;;;;;5010713;28;20068;-67
2022/06/01 01:56:35;;;;;;;8.85;1.92;;;14.20;74.60;;;;;;5010608;28;20025;-68
2022/06/01 01:59:49;;;;;;;3.75;0.85;;;14.30;75.20;;;;;;5008634;28;20029;-68
2022/06/01 02:02:41;;;;;;;1.67;0.50;;;14.20;76.90;;;;;;4988040;28;20117;-68
2022/06/01 02:08:28;;;;;;;4.28;0.82;;;14.60;76.30;;;;;;5008282;28;20093;-68
2022/06/01 02:14:16;;;;;;;2.20;0.30;;;14.30;75.70;;;;;;5012251;28;20557;-69
2022/06/01 02:16:54;;;;;;;2.30;0.30;;;14.30;74.30;;;;;;5009286;28;20037;-69
2022/06/01 02:19:26;;;;;;;1.45;0.25;;;14.40;74.90;;;;;;4317206;28;10000839;-68
2022/06/01 02:21:56;;;;;;;0.30;0.30;;;14.40;75.40;;;;;;5010489;28;20037;-69
2022/06/01 02:24:25;;;;;;;0.40;0.20;;;14.40;75.80;;;;;;5011553;28;20566;-68
2022/06/01 02:26:53;;;;;;;1.95;0.40;;;14.30;73.70;;;;;;5016313;28;20022;-69
2022/06/01 02:29:28;;;;;;;1.25;0.60;;;14.60;75.10;;;;;;5007452;28;20042;-67
2022/06/01 02:31:56;;;;;;;0.73;0.30;;;14.70;74.50;;;;;;5005689;28;20152;-68
2022/06/01 02:34:23;;;;;;;1.08;0.35;;;14.90;74.90;;;;;;5007161;28;20156;-67
2022/06/01 02:36:51;;;;;;;2.13;0.50;;;15.10;72.80;;;;;;5005270;28;20037;-66
2022/06/01 02:39:19;;;;;;;0.90;0.20;;;15.10;73.60;;;;;;5004940;28;20034;-65
2022/06/01 02:44:31;;;;;;;2.65;0.40;;;15.10;75.10;;;;;;5007235;28;20080;-72
2022/06/01 02:46:58;;;;;;;0.55;0.30;;;15.40;74.10;;;;;;5006652;28;20022;-66
2022/06/01 02:49:25;;;;;;;0.20;0.13;;;15.40;72.20;;;;;;5002365;28;20033;-69
2022/06/01 02:51:52;;;;;;;1.00;0.32;;;15.10;71.70;;;;;;5007371;28;20033;-66
2022/06/01 02:54:19;;;;;;;0.52;0.30;;;14.90;73.10;;;;;;5008029;28;20049;-66
2022/06/01 02:56:47;;;;;;;1.30;0.52;;;14.80;72.10;;;;;;5007351;28;20513;-66
2022/06/01 02:59:15;;;;;;;6.90;0.60;;;14.80;71.80;;;;;;5006984;28;20034;-66
2022/06/01 03:01:43;;;;;;;4.57;0.93;;;14.90;72.30;;;;;;5003440;28;20026;-71
2022/06/01 03:04:10;;;;;;;1.55;0.30;;;14.70;74.10;;;;;;5009086;28;20021;-65
2022/06/01 03:06:37;;;;;;;1.20;0.40;;;15.00;74.70;;;;;;5010289;28;20026;-69
2022/06/01 03:09:04;;;;;;;2.30;0.30;;;15.10;73.60;;;;;;5005002;28;20022;-65
2022/06/01 03:11:31;;;;;;;1.02;0.30;;;14.90;71.90;;;;;;5012038;28;20018;-66
2022/06/01 03:13:58;;;;;;;3.08;0.60;;;14.70;72.10;;;;;;5004984;28;20731;-65
2022/06/01 03:16:25;;;;;;;0.68;0.40;;;14.60;71.70;;;;;;5010779;28;20044;-65
2022/06/01 03:18:52;;;;;;;1.48;0.47;;;14.60;72.40;;;;;;5010026;28;20034;-65
2022/06/01 03:21:19;;;;;;;0.90;0.40;;;14.60;72.30;;;;;;5011631;28;20045;-70
2022/06/01 03:23:46;;;;;;;1.67;0.40;;;14.70;73.00;;;;;;5008769;28;20026;-69
2022/06/01 03:26:13;;;;;;;8.35;0.90;;;14.50;72.40;;;;;;5011600;28;20026;-71
2022/06/01 03:28:40;;;;;;;1.75;0.40;;;14.40;73.50;;;;;;5009331;28;20025;-65
2022/06/01 03:31:07;;;;;;;2.58;0.50;;;14.60;73.10;;;;;;5008487;28;20046;-65
2022/06/01 03:33:37;;;;;;;2.15;0.32;;;14.80;74.10;;;;;;5010302;28;20486;-65
2022/06/01 03:36:05;;;;;;;1.08;0.30;;;14.90;71.90;;;;;;5011031;28;20370;-69
2022/06/01 03:38:33;;;;;;;3.67;0.60;;;15.10;72.00;;;;;;5009129;28;20030;-69
2022/06/01 03:41:00;;;;;;;1.65;0.30;;;15.00;71.20;;;;;;5009792;28;20678;-65
2022/06/01 03:43:26;;;;;;;1.95;0.35;;;14.90;72.30;;;;;;5006205;28;20033;-70
2022/06/01 03:45:57;;;;;;;1.35;0.30;;;15.00;71.90;;;;;;5004933;28;20120;-70
2022/06/01 03:48:30;;;;;;;0.68;0.30;;;15.00;72.00;;;;;;5009829;28;20032;-66
2022/06/01 03:50:58;;;;;;;1.75;0.60;;;14.70;72.10;;;;;;5010680;28;20026;-70
2022/06/01 03:53:29;;;;;;;0.30;0.20;;;14.80;71.50;;;;;;5010951;28;20038;-68
2022/06/01 03:55:56;;;;;;;0.90;0.30;;;14.80;72.30;;;;;;5009144;28;20013;-66
2022/06/01 03:58:25;;;;;;;1.00;0.40;;;14.70;71.50;;;;;;5010171;28;20080;-68
2022/06/01 04:00:52;;;;;;;0.32;0.20;;;14.70;72.10;;;;;;5007323;28;20037;-69
2022/06/01 04:03:19;;;;;;;2.38;0.40;;;14.90;71.70;;;;;;5009071;28;20021;-65
2022/06/01 04:05:46;;;;;;;1.38;0.32;;;14.90;72.00;;;;;;5008046;28;20030;-66
2022/06/01 04:08:14;;;;;;;0.45;0.30;;;14.70;72.20;;;;;;5009476;28;20025;-64
2022/06/01 04:10:45;;;;;;;1.58;0.70;;;14.70;72.50;;;;;;5010545;28;20040;-64
2022/06/01 04:13:14;;;;;;;1.63;0.60;;;14.70;72.10;;;;;;5004725;28;20479;-69
2022/06/01 04:15:42;;;;;;;0.75;0.35;;;14.70;72.20;;;;;;5006086;28;20482;-65
2022/06/01 04:18:09;;;;;;;2.55;0.45;;;14.60;73.30;;;;;;5007825;28;20034;-69
2022/06/01 04:20:37;;;;;;;2.30;0.43;;;14.60;72.80;;;;;;5005392;28;20037;-62
2022/06/01 04:23:04;;;;;;;1.15;0.38;;;14.70;73.60;;;;;;5006676;28;20160;-65
2022/06/01 04:25:31;;;;;;;1.42;0.65;;;15.00;74.50;;;;;;5010136;28;20022;-68
2022/06/01 04:27:58;;;;;;;1.98;0.85;;;14.90;73.50;;;;;;5009158;28;20129;-72
2022/06/01 04:30:25;;;;;;;5.82;0.80;;;14.80;73.80;;;;;;5007947;28;20049;-72
2022/06/01 04:32:53;;;;;;;3.38;0.50;;;14.90;73.50;;;;;;5007343;28;20030;-71
2022/06/01 04:35:21;;;;;;;1.55;0.40;;;14.90;73.60;;;;;;5010405;28;20652;-70
2022/06/01 04:37:49;;;;;;;4.20;0.50;;;15.10;74.70;;;;;;5005974;28;20030;-68
2022/06/01 04:40:18;;;;;;;2.22;0.50;;;15.20;74.60;;;;;;4989846;28;20033;-69
2022/06/01 04:42:45;;;;;;;3.13;0.68;;;15.20;73.20;;;;;;5006654;28;20022;-66
2022/06/01 04:45:15;;;;;;;3.13;0.60;;;15.10;72.30;;;;;;5009262;28;20158;-66
2022/06/01 04:47:42;;;;;;;3.00;0.70;;;15.10;73.80;;;;;;5009149;28;20390;-65
2022/06/01 04:50:09;;;;;;;0.95;0.60;;;15.00;73.40;;;;;;5009101;28;20018;-64
2022/06/01 04:52:36;;;;;;;1.85;0.50;;;15.00;74.20;;;;;;5008544;28;20084;-65
2022/06/01 04:55:07;;;;;;;0.93;0.50;;;15.10;75.20;;;;;;5009130;28;20026;-69
2022/06/01 04:57:34;;;;;;;0.90;0.32;;;15.10;73.60;;;;;;5006949;28;20052;-66
2022/06/01 05:00:01;;;;;;;2.10;0.80;;;15.10;73.90;;;;;;5002517;28;20088;-69
2022/06/01 05:02:28;;;;;;;3.53;0.88;;;15.10;74.90;;;;;;5009290;28;20030;-65
2022/06/01 05:04:55;;;;;;;3.60;0.80;;;15.20;75.10;;;;;;5009495;28;20108;-67
2022/06/01 05:07:22;;;;;;;1.10;0.30;;;15.10;75.00;;;;;;5006114;28;20041;-66
2022/06/01 05:09:49;;;;;;;3.70;0.52;;;15.10;74.80;;;;;;5006226;28;20073;-65
2022/06/01 05:12:16;;;;;;;2.08;0.60;;;15.00;75.10;;;;;;5008472;28;20045;-70
2022/06/01 05:14:42;;;;;;;2.65;0.40;;;15.00;75.50;;;;;;5007226;28;20068;-71
2022/06/01 05:17:09;;;;;;;0.85;0.50;;;14.90;74.90;;;;;;5005512;28;20026;-71
2022/06/01 05:19:36;;;;;;;4.65;0.80;;;14.90;75.50;;;;;;5004984;28;20033;-70
2022/06/01 05:22:04;;;;;;;2.88;0.75;;;15.00;75.20;;;;;;5005431;28;20509;-66
2022/06/01 05:24:33;;;;;;;5.47;0.70;;;15.00;75.20;;;;;;5005365;28;20058;-64
2022/06/01 05:27:00;;;;;;;1.38;0.55;;;15.00;75.50;;;;;;5004548;28;20084;-72
2022/06/01 05:29:28;;;;;;;0.65;0.47;;;15.20;75.10;;;;;;5048361;23;20065;-70
2022/06/01 05:31:55;;;;;;;1.75;0.60;;;15.20;75.80;;;;;;5001993;28;20018;-67
2022/06/01 05:34:22;;;;;;;2.70;1.30;;;15.00;75.10;;;;;;5005357;28;20030;-66
2022/06/01 05:36:49;;;;;;;4.55;1.35;;;14.90;76.50;;;;;;5005816;28;20148;-67
2022/06/01 05:39:16;;;;;;;2.85;1.27;;;14.90;76.60;;;;;;4989382;28;20120;-66
2022/06/01 05:41:43;;;;;;;3.92;1.20;;;14.80;76.30;;;;;;5006723;28;20030;-68
2022/06/01 05:44:10;;;;;;;1.98;0.95;;;14.90;76.90;;;;;;5004270;28;20207;-69
2022/06/01 05:46:37;;;;;;;2.88;1.13;;;14.80;76.60;;;;;;5008756;28;20421;-71
2022/06/01 05:49:04;;;;;;;3.25;0.70;;;14.30;78.20;;;;;;5005028;28;20121;-66
2022/06/01 05:51:32;;;;;;;1.27;0.77;;;13.90;78.90;;;;;;5004464;28;20024;-69
2022/06/01 05:53:59;;;;;;;4.50;0.82;;;13.70;79.50;;;;;;5005262;28;20049;-68
2022/06/01 05:56:26;;;;;;;5.78;1.35;;;13.50;80.30;;;;;;5003409;28;20164;-68
2022/06/01 05:58:52;;;;;;;2.92;0.50;;;13.40;81.40;;;;;;5004352;28;20436;-68
2022/06/01 06:01:22;;;;;;;5.10;0.55;;;13.40;81.70;;;;;;5004879;28;20047;-66
2022/06/01 06:03:50;;;;;;;5.38;0.50;;;13.30;81.30;;;;;;5004481;28;20445;-65
2022/06/01 06:06:17;;;;;;;2.75;0.77;;;13.30;81.50;;;;;;5002681;28;20034;-65
2022/06/01 06:09:04;;;;;;;5.70;2.75;;;13.30;82.20;;;;;;5001293;28;20026;-68
2022/06/01 06:11:34;;;;;;;3.83;1.73;;;13.20;82.10;;;;;;5005012;28;20518;-67
2022/06/01 06:14:02;;;;;;;5.75;2.03;;;13.20;83.00;;;;;;5004639;28;20029;-70
2022/06/01 06:16:34;;;;;;;1.10;0.50;;;13.10;84.10;;;;;;5004709;28;20025;-67
2022/06/01 06:19:01;;;;;;;;;;;13.00;84.40;;;;;;5003212;28;20104;-66
2022/06/01 06:21:30;;;;;;;3.33;0.85;;;12.90;83.70;;;;;;5005382;28;20607;-67
2022/06/01 06:24:06;;;;;;;5.95;1.08;;;12.80;83.90;;;;;;5004232;28;20437;-67
2022/06/01 06:26:34;;;;;;;3.65;1.35;;;12.80;84.80;;;;;;5002443;28;20036;-70
2022/06/01 06:29:03;;;;;;;11.90;1.73;;;12.70;84.10;;;;;;5004426;28;20026;-68
2022/06/01 06:31:30;;;;;;;9.10;1.40;;;12.60;84.10;;;;;;5002625;28;20069;-67
2022/06/01 06:33:57;;;;;;;0.60;0.50;;;12.50;83.90;;;;;;5005544;28;20048;-68
2022/06/01 06:36:25;;;;;;;1.65;0.40;;;12.50;84.60;;;;;;5004561;28;20033;-69
2022/06/01 06:38:52;;;;;;;2.28;0.52;;;12.40;85.40;;;;;;5003687;28;20049;-64
2022/06/01 06:41:21;;;;;;;2.30;0.60;;;12.40;85.80;;;;;;5003328;28;20501;-64
2022/06/01 06:43:48;;;;;;;0.73;0.20;;;12.30;87.00;;;;;;5003635;28;20034;-66
2022/06/01 06:46:19;;;;;;;1.38;0.50;;;12.20;86.50;;;;;;5003485;28;20274;-71
2022/06/01 06:48:50;;;;;;;1.83;0.60;;;12.20;86.60;;;;;;5004572;28;20034;-66
2022/06/01 06:51:19;;;;;;;1.40;0.40;;;12.00;87.80;;;;;;5004068;28;20126;-66
2022/06/01 06:53:46;;;;;;;11.70;2.35;;;12.00;87.80;;;;;;5005451;28;20072;-71
2022/06/01 06:56:15;;;;;;;1.33;0.50;;;11.90;88.00;;;;;;4988201;28;20025;-67
2022/06/01 06:58:42;;;;;;;0.50;0.30;;;11.90;88.60;;;;;;5002088;28;20386;-72
2022/06/01 07:01:09;;;;;;;1.20;0.40;;;11.70;88.80;;;;;;5004400;28;20092;-72
2022/06/01 07:03:36;;;;;;;0.43;0.25;;;11.80;88.90;;;;;;4978555;28;20037;-70
2022/06/01 07:06:09;;;;;;;2.75;0.70;;;11.60;90.00;;;;;;5000263;28;20109;-65
2022/06/01 07:08:38;;;;;;;0.70;0.40;;;11.50;90.70;;;;;;5000433;28;20074;-65
2022/06/01 07:11:05;;;;;;;2.00;0.47;;;11.20;91.40;;;;;;5000731;28;20018;-65
2022/06/01 07:13:33;;;;;;;1.52;0.65;;;11.30;91.00;;;;;;5002248;28;20022;-69
2022/06/01 07:16:06;;;;;;;3.25;0.60;;;11.10;92.00;;;;;;5001641;28;20344;-71
2022/06/01 07:18:35;;;;;;;1.75;0.50;;;11.20;91.60;;;;;;4999240;28;20034;-66
2022/06/01 07:21:02;;;;;;;0.65;0.50;;;11.10;91.90;;;;;;5001243;28;20026;-67
2022/06/01 07:23:29;;;;;;;2.63;0.60;;;11.10;91.80;;;;;;5000059;28;20053;-67
2022/06/01 07:25:57;;;;;;;1.45;0.65;;;11.00;92.20;;;;;;5001320;28;20505;-72
2022/06/01 07:28:24;;;;;;;2.25;0.70;;;10.90;92.40;;;;;;5001325;28;20022;-72
2022/06/01 07:30:56;;;;;;;3.65;0.95;;;10.90;92.70;;;;;;5002605;28;20470;-71
2022/06/01 07:33:28;;;;;;;1.83;1.30;;;11.00;93.10;;;;;;5001689;28;20022;-70
2022/06/01 07:36:00;;;;;;;1.70;0.83;;;11.00;93.20;;;;;;4998448;28;20088;-70
2022/06/01 07:44:19;;;;;;;1.52;0.80;;;10.90;93.80;;;;;;5001458;28;20104;-70
2022/06/01 07:46:47;;;;;;;1.85;1.15;;;11.00;93.40;;;;;;5002247;28;20109;-69
2022/06/01 07:49:14;;;;;;;1.55;0.82;;;11.00;93.30;;;;;;5001217;28;20129;-71
2022/06/01 07:51:42;;;;;;;2.47;1.27;;;11.00;93.30;;;;;;5004776;28;20022;-69
2022/06/01 07:54:10;;;;;;;9.80;6.82;;;10.90;93.90;;;;;;5005761;28;20038;-71
2022/06/01 07:56:37;;;;;;;10.35;5.38;;;10.80;94.00;;;;;;5004163;28;20030;-69
2022/06/01 07:59:09;;;;;;;2.28;1.23;;;10.70;94.20;;;;;;5006625;28;20406;-68
2022/06/01 08:01:37;;;;;;;2.35;1.00;;;10.60;94.80;;;;;;5003453;28;20126;-70
2022/06/01 08:04:06;;;;;;;3.00;1.10;;;10.30;95.60;;;;;;5002701;28;20134;-70
2022/06/01 08:06:35;;;;;;;2.80;1.35;;;10.10;96.10;;;;;;5000863;28;20524;-70
2022/06/01 08:09:02;;;;;;;4.15;1.40;;;10.30;96.00;;;;;;5003683;28;20227;-72
2022/06/01 08:14:15;;;;;;;3.08;1.75;;;10.40;95.80;;;;;;5001366;28;20422;-69
2022/06/01 08:16:46;;;;;;;8.60;2.40;;;10.30;96.20;;;;;;5004453;28;20033;-69
2022/06/01 08:19:15;;;;;;;5.07;1.40;;;10.20;96.60;;;;;;5002940;28;20032;-72
2022/06/01 08:21:42;;;;;;;1.73;0.82;;;10.20;97.10;;;;;;5003828;28;20109;-70
2022/06/01 08:24:09;;;;;;;5.05;2.40;;;9.90;97.80;;;;;;4985692;28;20398;-69
2022/06/01 08:26:36;;;;;;;2.45;1.48;;;9.80;97.90;;;;;;5001957;28;20030;-70
2022/06/01 08:29:04;;;;;;;3.38;1.50;;;9.90;97.90;;;;;;5002497;28;20100;-70
2022/06/01 08:31:32;;;;;;;2.15;1.10;;;10.00;97.50;;;;;;5002736;28;20033;-72
2022/06/01 08:34:01;;;;;;;3.55;2.33;;;10.00;98.10;;;;;;5002698;28;20026;-65
2022/06/01 08:36:28;;;;;;;6.63;4.45;;;10.00;98.10;;;;;;5003925;28;20022;-67
2022/06/01 08:38:55;;;;;;;4.50;3.03;;;10.10;97.50;;;;;;5003456;28;20111;-64
2022/06/01 08:41:28;;;;;;;4.60;2.30;;;10.10;97.30;;;;;;4994223;28;20096;-68
2022/06/01 08:43:59;;;;;;;2.78;1.02;;;10.00;97.50;;;;;;5001376;28;20057;-69
2022/06/01 08:46:27;;;;;;;1.80;0.90;;;10.20;97.50;;;;;;5001358;28;20104;-69
2022/06/01 08:48:59;;;;;;;1.40;1.00;;;10.30;97.20;;;;;;5000019;28;20026;-68
2022/06/01 08:51:29;;;;;;;1.70;0.90;;;10.40;97.10;;;;;;5002166;28;20032;-64
2022/06/01 08:53:58;;;;;;;4.60;1.45;;;10.40;97.10;;;;;;5002678;28;20302;-67
2022/06/01 08:56:40;;;;;;;1.85;1.10;;;10.50;96.90;;;;;;5002106;28;20030;-70
2022/06/01 08:59:33;;;;;;;5.28;3.10;;;10.50;96.80;;;;;;5002135;28;20084;-71
2022/06/01 09:02:05;;;;;;;2.90;1.55;;;10.50;96.90;;;;;;4984396;28;20406;-67
2022/06/01 09:04:35;;;;;;;2.15;1.60;;;10.60;96.60;;;;;;4998318;28;20036;-69
2022/06/01 09:07:29;;;;;;;2.15;1.38;;;10.50;96.70;;;;;;4998837;28;20038;-67
2022/06/01 09:10:13;;;;;;;;;;;10.50;96.80;;;;;;4999707;28;20026;-70
2022/06/01 09:12:41;;;;;;;3.13;1.25;;;10.40;97.30;;;;;;4998085;28;19944;-68
2022/06/01 09:15:26;;;;;;;2.55;1.17;;;10.40;97.20;;;;;;5000664;28;20034;-69
2022/06/01 09:17:55;;;;;;;1.77;0.88;;;10.20;97.50;;;;;;4999593;28;20053;-71
2022/06/01 09:23:12;;;;;;;3.95;1.75;;;9.70;98.50;;;;;;5000254;28;20462;-70
2022/06/01 09:25:39;;;;;;;3.17;1.67;;;9.50;99.60;;;;;;4999301;28;20040;-72
2022/06/01 09:28:20;;;;;;;3.65;1.70;;;9.40;99.90;;;;;;5001171;28;20536;-68
2022/06/01 09:31:02;;;;;;;4.53;2.13;;;9.20;99.90;;;;;;4999252;28;20046;-70
2022/06/01 09:33:33;;;;;;;3.30;2.00;;;8.90;99.90;;;;;;4998815;28;20018;-70
2022/06/01 09:36:18;;;;;;;3.53;2.00;;;8.70;99.90;;;;;;4998671;28;20168;-69
2022/06/01 09:38:51;;;;;;;3.80;2.00;;;8.60;99.90;;;;;;4996198;28;20684;-72
2022/06/01 09:41:24;;;;;;;5.57;3.50;;;8.60;99.90;;;;;;5001336;28;20749;-69
2022/06/01 09:44:22;;;;;;;5.65;3.20;;;8.40;99.90;;;;;;4997183;28;20080;-69
2022/06/01 09:46:53;;;;;;;4.25;2.45;;;8.70;99.90;;;;;;5004066;28;20022;-72
2022/06/01 09:49:24;;;;;;;9.15;5.65;;;8.80;99.90;;;;;;4998027;28;20494;-70
2022/06/01 09:52:15;;;;;;;8.98;5.15;;;8.90;99.90;;;;;;5001659;28;20030;-71
2022/06/01 09:54:52;;;;;;;16.77;10.13;;;9.00;99.90;;;;;;4981175;28;20034;-70
2022/06/01 09:57:19;;;;;;;22.55;15.13;;;9.10;99.90;;;;;;5002136;28;20017;-74
2022/06/01 10:08:19;;;;;;;4.03;3.03;;;8.50;99.90;;;;;;4998495;28;20394;-72
2022/06/01 10:10:58;;;;;;;3.95;2.22;;;8.40;99.90;;;;;;4997833;28;20017;-65
2022/06/01 10:13:38;;;;;;;4.60;2.65;;;8.30;99.90;;;;;;4980407;28;20034;-68
2022/06/01 10:16:35;;;;;;;3.88;2.35;;;8.20;99.90;;;;;;4998505;28;20457;-66
2022/06/01 10:19:05;;;;;;;3.30;2.15;;;8.30;99.90;;;;;;4995836;28;20116;-66
2022/06/01 10:21:48;;;;;;;2.90;2.10;;;8.20;99.90;;;;;;4998595;28;20616;-69
2022/06/01 10:24:25;;;;;;;3.90;2.20;;;8.10;99.90;;;;;;4996366;28;20025;-72
2022/06/01 10:26:59;;;;;;;4.50;2.95;;;8.00;99.90;;;;;;4995921;28;20026;-73
2022/06/01 10:29:35;;;;;;;5.97;4.10;;;7.90;99.90;;;;;;4997728;28;20513;-68
2022/06/01 10:32:12;;;;;;;3.50;2.60;;;7.80;99.90;;;;;;4997095;28;20109;-68
2022/06/01 10:34:55;;;;;;;5.95;4.45;;;7.80;99.90;;;;;;4998119;28;20030;-66
2022/06/01 10:37:31;;;;;;;;;;;8.00;99.90;;;;;;4997066;28;20070;-73
2022/06/01 10:40:16;;;;;;;2.03;1.23;;;8.40;99.90;;;;;;4997101;28;19909;-71
2022/06/01 10:45:35;;;;;;;5.85;3.78;;;9.40;99.90;;;;;;4998155;28;20077;-73
2022/06/01 10:48:18;;;;;;;7.70;4.10;;;9.60;99.90;;;;;;4998101;28;20033;-71
2022/06/01 10:50:51;;;;;;;8.77;5.13;;;9.70;99.90;;;;;;4997328;28;20536;-68
2022/06/01 10:53:17;;;;;;;;;;;9.80;99.90;;;;;;4998550;28;20030;-70
2022/06/01 10:55:45;;;;;;;5.53;3.63;;;9.80;99.90;;;;;;4998892;28;19952;-71
2022/06/01 10:58:24;;;;;;;2.30;1.73;;;9.70;99.90;;;;;;4999463;28;20030;-71
2022/06/01 11:01:07;;;;;;;3.85;2.75;;;9.70;99.90;;;;;;4999722;28;20030;-68
2022/06/01 11:04:28;;;;;;;6.18;3.05;;;9.80;99.90;;;;;;4997739;28;20338;-68
2022/06/01 11:07:34;;;;;;;3.65;1.10;;;9.60;99.90;;;;;;4955366;28;20066;-71
2022/06/01 11:10:19;;;;;;;5.47;1.13;;;9.60;99.90;;;;;;4957003;28;20127;-71
2022/06/01 11:12:57;;;;;;;7.65;2.28;;;9.70;99.90;;;;;;4954794;28;20030;-69
2022/06/01 11:15:26;;;;;;;4.45;1.50;;;9.60;99.90;;;;;;4958307;28;20063;-69
2022/06/01 11:18:06;;;;;;;3.50;1.25;;;9.30;99.90;;;;;;4956851;28;20067;-69
2022/06/01 11:20:44;;;;;;;1.33;0.88;;;9.40;99.90;;;;;;4954189;28;20047;-68
2022/06/01 11:23:31;;;;;;;2.75;0.75;;;9.50;99.90;;;;;;4955678;28;20121;-68
2022/06/01 11:26:19;;;;;;;2.55;0.80;;;9.30;99.90;;;;;;4957134;28;20023;-69
2022/06/01 11:29:11;;;;;;;1.40;0.90;;;9.20;99.90;;;;;;4960855;28;20047;-68
2022/06/01 11:31:43;;;;;;;1.08;0.70;;;9.00;99.90;;;;;;4960137;28;20500;-69
2022/06/01 11:34:20;;;;;;;0.82;0.60;;;9.00;99.90;;;;;;4962607;28;20200;-67
2022/06/01 11:37:18;;;;;;;2.13;0.50;;;9.00;99.90;;;;;;4962769;28;20050;-69
2022/06/01 11:39:57;;;;;;;0.85;0.47;;;9.10;99.90;;;;;;4965816;28;20051;-62
2022/06/01 11:42:31;;;;;;;0.82;0.43;;;9.30;99.90;;;;;;5007309;28;20021;-69
2022/06/01 11:45:08;;;;;;;0.47;0.40;;;9.50;99.90;;;;;;5001664;28;20232;-71
2022/06/01 11:48:10;;;;;;;1.95;0.40;;;9.60;99.90;;;;;;5013573;28;20029;-71
2022/06/01 11:51:10;;;;;;;1.80;0.50;;;9.80;99.90;;;;;;4998965;28;20501;-70
2022/06/01 11:53:54;;;;;;;1.02;0.45;;;9.80;99.90;;;;;;5002878;28;20398;-65
2022/06/01 11:56:30;;;;;;;2.95;0.65;;;9.90;99.90;;;;;;5004442;28;20030;-65
2022/06/01 11:59:15;;;;;;;3.08;0.75;;;9.90;99.90;;;;;;5005148;28;20558;-65
2022/06/01 12:01:43;;;;;;;0.75;0.43;;;9.90;99.90;;;;;;5004034;28;20033;-65
2022/06/01 12:04:32;;;;;;;1.17;0.45;;;9.90;99.90;;;;;;5002247;28;20061;-65
2022/06/01 12:07:32;;;;;;;1.50;0.50;;;9.90;99.90;;;;;;5004489;28;20347;-65
2022/06/01 12:10:06;;;;;;;1.20;0.65;;;9.80;99.90;;;;;;5003651;28;20073;-65
2022/06/01 12:12:36;;;;;;;1.58;0.55;;;9.90;99.90;;;;;;5001415;28;20034;-66
2022/06/01 12:15:14;;;;;;;1.27;0.70;;;9.90;99.90;;;;;;5005705;28;20121;-70
2022/06/01 12:18:12;;;;;;;4.00;0.63;;;9.70;99.90;;;;;;5003595;28;20110;-65
2022/06/01 12:20:39;;;;;;;3.60;0.80;;;9.50;99.90;;;;;;5006106;28;20095;-68
2022/06/01 12:28:57;;;;;;;6.10;0.73;;;9.10;99.90;;;;;;5005515;28;20092;-65
2022/06/01 12:31:32;;;;;;;1.67;0.60;;;8.90;99.90;;;;;;5003495;28;20496;-65
2022/06/01 12:34:10;;;;;;;2.75;0.50;;;8.70;99.90;;;;;;5005378;28;20022;-69
2022/06/01 12:37:14;;;;;;;1.20;0.45;;;8.60;99.90;;;;;;5003957;28;20490;-69
2022/06/01 12:39:41;;;;;;;1.33;0.50;;;8.30;99.90;;;;;;5005847;28;20026;-71
2022/06/01 12:42:21;;;;;;;1.20;0.63;;;8.10;99.90;;;;;;5005863;28;20040;-71
2022/06/01 12:44:51;;;;;;;0.60;0.60;;;8.00;99.90;;;;;;4990076;28;20049;-65
2022/06/01 12:47:38;;;;;;;0.63;0.60;;;7.90;99.90;;;;;;5005527;28;20478;-69
2022/06/01 12:50:11;;;;;;;1.95;0.60;;;7.80;99.90;;;;;;5004791;28;20030;-66
2022/06/01 12:52:39;;;;;;;1.80;0.60;;;7.70;99.90;;;;;;5004301;28;20030;-65
2022/06/01 12:55:10;;;;;;;0.90;0.65;;;7.60;99.90;;;;;;5005642;28;20037;-71
2022/06/01 12:57:49;;;;;;;1.70;0.50;;;7.70;99.90;;;;;;5004323;28;20072;-69
2022/06/01 13:00:30;;;;;;;0.47;0.47;;;7.70;99.90;;;;;;5005924;28;20030;-64
2022/06/01 13:02:57;;;;;;;1.20;0.40;;;7.80;99.90;;;;;;5004645;28;20034;-68
2022/06/01 13:05:35;;;;;;;6.70;0.80;;;7.70;99.90;;;;;;4986275;28;20041;-65
2022/06/01 13:08:04;;;;;;;4.00;0.70;;;7.70;99.90;;;;;;5003010;28;20030;-69
2022/06/01 13:10:34;;;;;;;0.75;0.70;;;7.70;99.90;;;;;;5005530;28;20036;-65
2022/06/01 13:13:05;;;;;;;2.05;0.60;;;7.80;99.90;;;;;;5003325;28;20429;-66
2022/06/01 13:15:32;;;;;;;1.52;0.60;;;7.80;99.90;;;;;;5003774;28;20709;-69
2022/06/01 13:18:05;;;;;;;2.38;0.70;;;7.90;99.90;;;;;;5003823;28;20037;-70
2022/06/01 13:20:55;;;;;;;0.70;0.63;;;7.80;99.90;;;;;;5005547;28;20033;-70
2022/06/01 13:23:41;;;;;;;1.50;0.60;;;7.60;99.90;;;;;;4657898;28;10000549;-65
2022/06/01 13:26:12;;;;;;;2.78;0.65;;;7.50;99.90;;;;;;5005278;28;20386;-65
2022/06/01 13:28:39;;;;;;;1.20;1.00;;;7.40;99.90;;;;;;5006670;28;20108;-69
2022/06/01 13:31:06;;;;;;;1.55;0.98;;;7.30;99.90;;;;;;5006854;28;20063;-70
2022/06/01 13:33:38;;;;;;;2.33;1.20;;;7.30;99.90;;;;;;5007792;28;20045;-70
2022/06/01 13:36:12;;;;;;;0.98;0.70;;;7.30;99.90;;;;;;5005995;28;20080;-65
2022/06/01 13:38:49;;;;;;;1.27;0.90;;;7.30;99.90;;;;;;5007423;28;20033;-65
2022/06/01 13:41:22;;;;;;;1.52;0.90;;;7.40;99.90;;;;;;5007723;28;20504;-65
2022/06/01 13:43:50;;;;;;;1.63;0.90;;;7.40;99.90;;;;;;5007683;28;20471;-70
2022/06/01 13:46:46;;;;;;;1.67;1.15;;;7.40;99.90;;;;;;5008584;28;20447;-65
2022/06/01 13:49:17;;;;;;;3.50;0.68;;;7.30;99.90;;;;;;4910407;29;20489;-65
2022/06/01 13:51:48;;;;;;;0.77;0.65;;;7.10;99.90;;;;;;4916209;29;20508;-65
2022/06/01 13:54:36;;;;;;;1.40;0.82;;;7.00;99.90;;;;;;4909344;29;20044;-69